sensor_id;sensor_type;location;lat;lon;timestamp;pressure;altitude;pressure_sealevel;temperature
70415;BMP280;57837;52.064;113.478;2023-06-04T00:01:26;93668.97;;;29.95
70415;BMP280;57837;52.064;113.478;2023-06-04T00:04:30;93676.19;;;30.78
70415;BMP280;57837;52.064;113.478;2023-06-04T00:07:33;93677.97;;;31.41
70415;BMP280;57837;52.064;113.478;2023-06-04T00:10:37;93675.53;;;31.45
70415;BMP280;57837;52.064;113.478;2023-06-04T00:13:43;93675.34;;;31.08
70415;BMP280;57837;52.064;113.478;2023-06-04T00:16:47;93677.31;;;31.86
70415;BMP280;57837;52.064;113.478;2023-06-04T00:19:51;93669.13;;;31.38
70415;BMP280;57837;52.064;113.478;2023-06-04T00:22:54;93675.69;;;31.58
70415;BMP280;57837;52.064;113.478;2023-06-04T00:25:58;93672.81;;;32.37
70415;BMP280;57837;52.064;113.478;2023-06-04T00:29:02;93667.16;;;32.56
70415;BMP280;57837;52.064;113.478;2023-06-04T00:32:06;93676.09;;;32.24
70415;BMP280;57837;52.064;113.478;2023-06-04T00:35:10;93679.38;;;32.11
70415;BMP280;57837;52.064;113.478;2023-06-04T00:38:15;93673.69;;;32.53
70415;BMP280;57837;52.064;113.478;2023-06-04T00:41:18;93677.53;;;32.14
70415;BMP280;57837;52.064;113.478;2023-06-04T00:44:22;93670.63;;;32.59
70415;BMP280;57837;52.064;113.478;2023-06-04T00:47:28;93665.88;;;31.74
70415;BMP280;57837;52.064;113.478;2023-06-04T00:50:32;93668.53;;;31.28
70415;BMP280;57837;52.064;113.478;2023-06-04T00:53:36;93663.31;;;30.64
70415;BMP280;57837;52.064;113.478;2023-06-04T00:56:40;93663.34;;;31.88
70415;BMP280;57837;52.064;113.478;2023-06-04T00:59:44;93658.44;;;32.81
70415;BMP280;57837;52.064;113.478;2023-06-04T01:02:49;93653.91;;;33.50
70415;BMP280;57837;52.064;113.478;2023-06-04T01:06:13;93656.00;;;33.65
70415;BMP280;57837;52.064;113.478;2023-06-04T01:09:18;93646.94;;;32.42
70415;BMP280;57837;52.064;113.478;2023-06-04T01:12:22;93652.41;;;32.94
70415;BMP280;57837;52.064;113.478;2023-06-04T01:15:26;93642.28;;;32.67
70415;BMP280;57837;52.064;113.478;2023-06-04T01:18:31;93651.72;;;32.32
70415;BMP280;57837;52.064;113.478;2023-06-04T01:21:39;93652.09;;;32.26
70415;BMP280;57837;52.064;113.478;2023-06-04T01:24:45;93639.81;;;32.72
70415;BMP280;57837;52.064;113.478;2023-06-04T01:27:55;93629.03;;;33.22
70415;BMP280;57837;52.064;113.478;2023-06-04T01:31:01;93634.31;;;32.44
70415;BMP280;57837;52.064;113.478;2023-06-04T01:34:07;93630.19;;;32.80
70415;BMP280;57837;52.064;113.478;2023-06-04T01:37:12;93637.81;;;32.10
70415;BMP280;57837;52.064;113.478;2023-06-04T01:40:17;93627.78;;;31.41
70415;BMP280;57837;52.064;113.478;2023-06-04T01:43:22;93621.34;;;31.11
70415;BMP280;57837;52.064;113.478;2023-06-04T01:46:25;93612.38;;;30.95
70415;BMP280;57837;52.064;113.478;2023-06-04T01:49:29;93609.84;;;31.90
70415;BMP280;57837;52.064;113.478;2023-06-04T01:52:33;93605.59;;;31.73
70415;BMP280;57837;52.064;113.478;2023-06-04T01:55:36;93610.88;;;32.45
70415;BMP280;57837;52.064;113.478;2023-06-04T01:58:41;93607.44;;;33.33
70415;BMP280;57837;52.064;113.478;2023-06-04T02:01:45;93602.94;;;33.24
70415;BMP280;57837;52.064;113.478;2023-06-04T02:04:49;93604.53;;;32.52
70415;BMP280;57837;52.064;113.478;2023-06-04T02:07:55;93596.97;;;31.40
70415;BMP280;57837;52.064;113.478;2023-06-04T02:11:00;93591.59;;;31.40
70415;BMP280;57837;52.064;113.478;2023-06-04T02:14:03;93592.78;;;31.49
70415;BMP280;57837;52.064;113.478;2023-06-04T02:17:06;93585.34;;;31.59
70415;BMP280;57837;52.064;113.478;2023-06-04T02:20:16;93582.50;;;31.68
70415;BMP280;57837;52.064;113.478;2023-06-04T02:23:20;93576.44;;;30.98
70415;BMP280;57837;52.064;113.478;2023-06-04T02:26:23;93573.06;;;31.09
70415;BMP280;57837;52.064;113.478;2023-06-04T02:29:28;93571.56;;;31.64
70415;BMP280;57837;52.064;113.478;2023-06-04T02:32:32;93566.63;;;31.95
70415;BMP280;57837;52.064;113.478;2023-06-04T02:35:39;93566.81;;;31.40
70415;BMP280;57837;52.064;113.478;2023-06-04T02:38:43;93559.94;;;31.25
70415;BMP280;57837;52.064;113.478;2023-06-04T02:41:47;93553.28;;;30.80
70415;BMP280;57837;52.064;113.478;2023-06-04T02:44:51;93547.63;;;31.31
70415;BMP280;57837;52.064;113.478;2023-06-04T02:47:54;93542.81;;;31.65
70415;BMP280;57837;52.064;113.478;2023-06-04T02:50:58;93539.25;;;31.97
70415;BMP280;57837;52.064;113.478;2023-06-04T02:54:01;93529.81;;;31.96
70415;BMP280;57837;52.064;113.478;2023-06-04T02:57:05;93533.63;;;31.45
70415;BMP280;57837;52.064;113.478;2023-06-04T03:00:10;93525.50;;;31.31
70415;BMP280;57837;52.064;113.478;2023-06-04T03:03:17;93526.91;;;31.20
70415;BMP280;57837;52.064;113.478;2023-06-04T03:06:22;93521.75;;;31.48
70415;BMP280;57837;52.064;113.478;2023-06-04T03:09:27;93516.31;;;32.19
70415;BMP280;57837;52.064;113.478;2023-06-04T03:12:31;93510.06;;;32.40
70415;BMP280;57837;52.064;113.478;2023-06-04T03:15:35;93508.75;;;32.16
70415;BMP280;57837;52.064;113.478;2023-06-04T03:18:43;93504.31;;;31.35
70415;BMP280;57837;52.064;113.478;2023-06-04T03:21:47;93498.75;;;31.08
70415;BMP280;57837;52.064;113.478;2023-06-04T03:24:54;93498.25;;;31.11
70415;BMP280;57837;52.064;113.478;2023-06-04T03:27:58;93496.88;;;31.10
70415;BMP280;57837;52.064;113.478;2023-06-04T03:31:02;93487.66;;;30.55
70415;BMP280;57837;52.064;113.478;2023-06-04T03:34:06;93492.09;;;30.30
70415;BMP280;57837;52.064;113.478;2023-06-04T03:37:12;93476.19;;;29.57
70415;BMP280;57837;52.064;113.478;2023-06-04T03:40:15;93467.03;;;29.08
70415;BMP280;57837;52.064;113.478;2023-06-04T03:43:24;93470.06;;;29.23
70415;BMP280;57837;52.064;113.478;2023-06-04T03:46:31;93463.28;;;29.32
70415;BMP280;57837;52.064;113.478;2023-06-04T03:49:36;93461.03;;;29.28
70415;BMP280;57837;52.064;113.478;2023-06-04T03:52:39;93443.59;;;29.37
70415;BMP280;57837;52.064;113.478;2023-06-04T03:55:43;93445.00;;;29.38
70415;BMP280;57837;52.064;113.478;2023-06-04T03:58:47;93448.13;;;29.25
70415;BMP280;57837;52.064;113.478;2023-06-04T04:01:51;93434.63;;;29.02
70415;BMP280;57837;52.064;113.478;2023-06-04T04:04:56;93436.28;;;29.07
70415;BMP280;57837;52.064;113.478;2023-06-04T04:08:00;93425.47;;;29.14
70415;BMP280;57837;52.064;113.478;2023-06-04T04:11:07;93420.94;;;28.55
70415;BMP280;57837;52.064;113.478;2023-06-04T04:14:12;93417.03;;;28.47
70415;BMP280;57837;52.064;113.478;2023-06-04T04:17:16;93416.81;;;28.64
70415;BMP280;57837;52.064;113.478;2023-06-04T04:20:20;93414.97;;;28.76
70415;BMP280;57837;52.064;113.478;2023-06-04T04:23:31;93410.69;;;28.61
70415;BMP280;57837;52.064;113.478;2023-06-04T04:26:34;93403.13;;;28.48
70415;BMP280;57837;52.064;113.478;2023-06-04T04:29:39;93396.75;;;28.63
70415;BMP280;57837;52.064;113.478;2023-06-04T04:32:47;93398.94;;;28.86
70415;BMP280;57837;52.064;113.478;2023-06-04T04:36:00;93397.16;;;28.69
70415;BMP280;57837;52.064;113.478;2023-06-04T04:39:03;93387.75;;;28.18
70415;BMP280;57837;52.064;113.478;2023-06-04T04:42:09;93384.13;;;27.56
70415;BMP280;57837;52.064;113.478;2023-06-04T04:45:13;93387.06;;;26.85
70415;BMP280;57837;52.064;113.478;2023-06-04T04:48:17;93386.81;;;26.91
70415;BMP280;57837;52.064;113.478;2023-06-04T04:51:21;93375.16;;;27.32
70415;BMP280;57837;52.064;113.478;2023-06-04T04:54:27;93367.75;;;27.59
70415;BMP280;57837;52.064;113.478;2023-06-04T04:57:30;93362.16;;;27.75
70415;BMP280;57837;52.064;113.478;2023-06-04T05:00:35;93348.31;;;27.76
70415;BMP280;57837;52.064;113.478;2023-06-04T05:03:38;93338.75;;;27.92
70415;BMP280;57837;52.064;113.478;2023-06-04T05:06:45;93338.88;;;28.13
70415;BMP280;57837;52.064;113.478;2023-06-04T05:09:49;93341.41;;;27.92
70415;BMP280;57837;52.064;113.478;2023-06-04T05:12:54;93346.41;;;28.17
70415;BMP280;57837;52.064;113.478;2023-06-04T05:16:04;93343.31;;;28.70
70415;BMP280;57837;52.064;113.478;2023-06-04T05:19:12;93336.09;;;28.83
70415;BMP280;57837;52.064;113.478;2023-06-04T05:22:16;93336.63;;;28.60
70415;BMP280;57837;52.064;113.478;2023-06-04T05:25:21;93329.63;;;28.55
70415;BMP280;57837;52.064;113.478;2023-06-04T05:28:25;93325.84;;;28.58
70415;BMP280;57837;52.064;113.478;2023-06-04T05:31:30;93325.00;;;29.07
70415;BMP280;57837;52.064;113.478;2023-06-04T05:34:38;93319.84;;;28.78
70415;BMP280;57837;52.064;113.478;2023-06-04T05:37:43;93314.13;;;28.32
70415;BMP280;57837;52.064;113.478;2023-06-04T05:40:50;93309.03;;;27.86
70415;BMP280;57837;52.064;113.478;2023-06-04T05:43:55;93313.13;;;27.58
70415;BMP280;57837;52.064;113.478;2023-06-04T05:46:59;93306.84;;;27.44
70415;BMP280;57837;52.064;113.478;2023-06-04T05:50:04;93302.78;;;27.43
70415;BMP280;57837;52.064;113.478;2023-06-04T05:53:09;93297.00;;;27.09
70415;BMP280;57837;52.064;113.478;2023-06-04T05:56:15;93300.63;;;26.84
70415;BMP280;57837;52.064;113.478;2023-06-04T05:59:19;93294.38;;;26.53
70415;BMP280;57837;52.064;113.478;2023-06-04T06:02:24;93284.22;;;26.32
70415;BMP280;57837;52.064;113.478;2023-06-04T06:05:27;93280.44;;;26.35
70415;BMP280;57837;52.064;113.478;2023-06-04T06:08:31;93273.91;;;26.36
70415;BMP280;57837;52.064;113.478;2023-06-04T06:11:36;93267.97;;;26.28
70415;BMP280;57837;52.064;113.478;2023-06-04T06:14:40;93273.53;;;26.23
70415;BMP280;57837;52.064;113.478;2023-06-04T06:17:45;93265.31;;;26.28
70415;BMP280;57837;52.064;113.478;2023-06-04T06:20:49;93254.09;;;26.47
70415;BMP280;57837;52.064;113.478;2023-06-04T06:23:54;93256.38;;;26.60
70415;BMP280;57837;52.064;113.478;2023-06-04T06:26:58;93249.69;;;26.69
70415;BMP280;57837;52.064;113.478;2023-06-04T06:30:02;93254.84;;;26.67
70415;BMP280;57837;52.064;113.478;2023-06-04T06:33:06;93244.59;;;26.54
70415;BMP280;57837;52.064;113.478;2023-06-04T06:36:12;93241.72;;;26.78
70415;BMP280;57837;52.064;113.478;2023-06-04T06:39:16;93230.28;;;27.04
70415;BMP280;57837;52.064;113.478;2023-06-04T06:42:20;93221.59;;;27.52
70415;BMP280;57837;52.064;113.478;2023-06-04T06:45:25;93224.00;;;27.98
70415;BMP280;57837;52.064;113.478;2023-06-04T06:48:29;93226.50;;;28.05
70415;BMP280;57837;52.064;113.478;2023-06-04T06:51:33;93220.47;;;28.05
70415;BMP280;57837;52.064;113.478;2023-06-04T06:54:37;93212.31;;;28.12
70415;BMP280;57837;52.064;113.478;2023-06-04T06:57:41;93207.06;;;28.24
70415;BMP280;57837;52.064;113.478;2023-06-04T07:00:45;93204.41;;;28.24
70415;BMP280;57837;52.064;113.478;2023-06-04T07:03:48;93205.66;;;27.92
70415;BMP280;57837;52.064;113.478;2023-06-04T07:06:52;93209.50;;;27.80
70415;BMP280;57837;52.064;113.478;2023-06-04T07:09:55;93193.03;;;27.93
70415;BMP280;57837;52.064;113.478;2023-06-04T07:12:59;93193.84;;;28.05
70415;BMP280;57837;52.064;113.478;2023-06-04T07:16:03;93189.13;;;27.94
70415;BMP280;57837;52.064;113.478;2023-06-04T07:19:07;93184.16;;;27.69
70415;BMP280;57837;52.064;113.478;2023-06-04T07:22:10;93182.69;;;27.28
70415;BMP280;57837;52.064;113.478;2023-06-04T07:25:13;93189.16;;;27.25
70415;BMP280;57837;52.064;113.478;2023-06-04T07:28:18;93181.97;;;27.37
70415;BMP280;57837;52.064;113.478;2023-06-04T07:31:21;93178.19;;;27.49
70415;BMP280;57837;52.064;113.478;2023-06-04T07:34:25;93160.94;;;27.60
70415;BMP280;57837;52.064;113.478;2023-06-04T07:37:29;93176.31;;;27.71
70415;BMP280;57837;52.064;113.478;2023-06-04T07:40:33;93163.88;;;27.64
70415;BMP280;57837;52.064;113.478;2023-06-04T07:43:37;93163.19;;;27.54
70415;BMP280;57837;52.064;113.478;2023-06-04T07:46:41;93156.09;;;27.37
70415;BMP280;57837;52.064;113.478;2023-06-04T07:49:44;93166.88;;;27.30
70415;BMP280;57837;52.064;113.478;2023-06-04T07:53:04;93166.63;;;27.16
70415;BMP280;57837;52.064;113.478;2023-06-04T07:56:09;93170.28;;;27.01
70415;BMP280;57837;52.064;113.478;2023-06-04T07:59:13;93156.28;;;26.91
70415;BMP280;57837;52.064;113.478;2023-06-04T08:02:16;93153.34;;;26.87
70415;BMP280;57837;52.064;113.478;2023-06-04T08:05:19;93155.69;;;27.02
70415;BMP280;57837;52.064;113.478;2023-06-04T08:08:23;93145.91;;;27.05
70415;BMP280;57837;52.064;113.478;2023-06-04T08:11:27;93157.41;;;26.98
70415;BMP280;57837;52.064;113.478;2023-06-04T08:14:30;93148.31;;;26.91
70415;BMP280;57837;52.064;113.478;2023-06-04T08:17:35;93155.00;;;26.83
70415;BMP280;57837;52.064;113.478;2023-06-04T08:20:39;93146.63;;;26.67
70415;BMP280;57837;52.064;113.478;2023-06-04T08:23:43;93142.84;;;26.61
70415;BMP280;57837;52.064;113.478;2023-06-04T08:26:47;93158.91;;;26.53
70415;BMP280;57837;52.064;113.478;2023-06-04T08:29:51;93149.50;;;26.33
70415;BMP280;57837;52.064;113.478;2023-06-04T08:32:55;93150.41;;;26.18
70415;BMP280;57837;52.064;113.478;2023-06-04T08:35:59;93145.28;;;26.11
70415;BMP280;57837;52.064;113.478;2023-06-04T08:39:03;93133.34;;;26.02
70415;BMP280;57837;52.064;113.478;2023-06-04T08:42:15;93131.53;;;25.95
70415;BMP280;57837;52.064;113.478;2023-06-04T08:45:23;93128.69;;;25.93
70415;BMP280;57837;52.064;113.478;2023-06-04T08:48:28;93127.28;;;25.92
70415;BMP280;57837;52.064;113.478;2023-06-04T08:51:36;93127.34;;;26.02
70415;BMP280;57837;52.064;113.478;2023-06-04T08:54:43;93119.84;;;26.08
70415;BMP280;57837;52.064;113.478;2023-06-04T08:57:49;93127.41;;;26.11
70415;BMP280;57837;52.064;113.478;2023-06-04T09:00:54;93122.06;;;26.02
70415;BMP280;57837;52.064;113.478;2023-06-04T09:03:59;93130.81;;;25.95
70415;BMP280;57837;52.064;113.478;2023-06-04T09:07:06;93131.47;;;25.85
70415;BMP280;57837;52.064;113.478;2023-06-04T09:10:09;93113.13;;;25.70
70415;BMP280;57837;52.064;113.478;2023-06-04T09:13:17;93111.69;;;25.60
70415;BMP280;57837;52.064;113.478;2023-06-04T09:16:21;93108.19;;;25.57
70415;BMP280;57837;52.064;113.478;2023-06-04T09:19:25;93106.38;;;25.60
70415;BMP280;57837;52.064;113.478;2023-06-04T09:22:36;93112.09;;;25.66
70415;BMP280;57837;52.064;113.478;2023-06-04T09:25:42;93120.22;;;25.58
70415;BMP280;57837;52.064;113.478;2023-06-04T09:28:49;93117.03;;;25.43
70415;BMP280;57837;52.064;113.478;2023-06-04T09:31:59;93120.38;;;25.43
70415;BMP280;57837;52.064;113.478;2023-06-04T09:35:12;93113.84;;;25.44
70415;BMP280;57837;52.064;113.478;2023-06-04T09:38:17;93109.03;;;25.33
70415;BMP280;57837;52.064;113.478;2023-06-04T09:41:21;93111.06;;;25.25
70415;BMP280;57837;52.064;113.478;2023-06-04T09:44:29;93109.91;;;25.18
70415;BMP280;57837;52.064;113.478;2023-06-04T09:47:43;93101.22;;;25.08
70415;BMP280;57837;52.064;113.478;2023-06-04T09:50:48;93105.44;;;24.94
70415;BMP280;57837;52.064;113.478;2023-06-04T09:53:58;93113.78;;;24.91
70415;BMP280;57837;52.064;113.478;2023-06-04T09:57:02;93101.31;;;24.84
70415;BMP280;57837;52.064;113.478;2023-06-04T10:00:08;93111.44;;;24.77
70415;BMP280;57837;52.064;113.478;2023-06-04T10:03:15;93102.50;;;24.73
70415;BMP280;57837;52.064;113.478;2023-06-04T10:06:21;93106.75;;;24.68
70415;BMP280;57837;52.064;113.478;2023-06-04T10:09:26;93108.25;;;24.62
70415;BMP280;57837;52.064;113.478;2023-06-04T10:12:35;93111.41;;;24.60
70415;BMP280;57837;52.064;113.478;2023-06-04T10:15:40;93104.72;;;24.59
70415;BMP280;57837;52.064;113.478;2023-06-04T10:18:44;93110.56;;;24.58
70415;BMP280;57837;52.064;113.478;2023-06-04T10:21:49;93097.59;;;24.52
70415;BMP280;57837;52.064;113.478;2023-06-04T10:24:53;93096.22;;;24.44
70415;BMP280;57837;52.064;113.478;2023-06-04T10:27:57;93110.56;;;24.41
70415;BMP280;57837;52.064;113.478;2023-06-04T10:31:01;93108.09;;;24.35
70415;BMP280;57837;52.064;113.478;2023-06-04T10:34:05;93105.16;;;24.31
70415;BMP280;57837;52.064;113.478;2023-06-04T10:37:22;93109.75;;;24.31
70415;BMP280;57837;52.064;113.478;2023-06-04T10:40:32;93117.00;;;24.30
70415;BMP280;57837;52.064;113.478;2023-06-04T10:43:37;93108.34;;;24.30
70415;BMP280;57837;52.064;113.478;2023-06-04T10:46:41;93110.75;;;24.35
70415;BMP280;57837;52.064;113.478;2023-06-04T10:49:47;93115.84;;;24.41
70415;BMP280;57837;52.064;113.478;2023-06-04T10:52:52;93112.66;;;24.42
70415;BMP280;57837;52.064;113.478;2023-06-04T10:55:56;93126.25;;;24.39
70415;BMP280;57837;52.064;113.478;2023-06-04T10:59:15;93129.09;;;24.41
70415;BMP280;57837;52.064;113.478;2023-06-04T11:02:20;93118.53;;;24.33
70415;BMP280;57837;52.064;113.478;2023-06-04T11:05:35;93129.34;;;24.28
70415;BMP280;57837;52.064;113.478;2023-06-04T11:08:39;93136.22;;;24.31
70415;BMP280;57837;52.064;113.478;2023-06-04T11:11:43;93146.81;;;24.31
70415;BMP280;57837;52.064;113.478;2023-06-04T11:14:54;93157.72;;;24.10
70415;BMP280;57837;52.064;113.478;2023-06-04T11:17:58;93165.16;;;23.32
70415;BMP280;57837;52.064;113.478;2023-06-04T11:21:02;93169.16;;;22.78
70415;BMP280;57837;52.064;113.478;2023-06-04T11:24:05;93178.47;;;22.33
70415;BMP280;57837;52.064;113.478;2023-06-04T11:27:09;93185.28;;;21.98
70415;BMP280;57837;52.064;113.478;2023-06-04T11:30:26;93182.06;;;21.77
70415;BMP280;57837;52.064;113.478;2023-06-04T11:33:30;93179.13;;;21.45
70415;BMP280;57837;52.064;113.478;2023-06-04T11:36:33;93182.16;;;21.21
70415;BMP280;57837;52.064;113.478;2023-06-04T11:39:38;93187.03;;;21.17
70415;BMP280;57837;52.064;113.478;2023-06-04T11:42:42;93176.13;;;21.13
70415;BMP280;57837;52.064;113.478;2023-06-04T11:45:46;93167.63;;;20.99
70415;BMP280;57837;52.064;113.478;2023-06-04T11:48:51;93172.28;;;20.85
70415;BMP280;57837;52.064;113.478;2023-06-04T11:51:56;93172.53;;;20.74
70415;BMP280;57837;52.064;113.478;2023-06-04T11:54:59;93171.66;;;20.72
70415;BMP280;57837;52.064;113.478;2023-06-04T11:58:02;93169.03;;;20.72
70415;BMP280;57837;52.064;113.478;2023-06-04T12:01:09;93171.16;;;20.73
70415;BMP280;57837;52.064;113.478;2023-06-04T12:04:18;93170.94;;;20.71
70415;BMP280;57837;52.064;113.478;2023-06-04T12:07:22;93179.06;;;20.73
70415;BMP280;57837;52.064;113.478;2023-06-04T12:10:28;93172.72;;;20.76
70415;BMP280;57837;52.064;113.478;2023-06-04T12:13:37;93163.97;;;20.74
70415;BMP280;57837;52.064;113.478;2023-06-04T12:16:41;93165.34;;;20.75
70415;BMP280;57837;52.064;113.478;2023-06-04T12:19:49;93168.69;;;20.75
70415;BMP280;57837;52.064;113.478;2023-06-04T12:22:53;93175.31;;;20.69
70415;BMP280;57837;52.064;113.478;2023-06-04T12:25:57;93167.38;;;20.61
70415;BMP280;57837;52.064;113.478;2023-06-04T12:29:14;93161.19;;;20.58
70415;BMP280;57837;52.064;113.478;2023-06-04T12:32:18;93170.28;;;20.57
70415;BMP280;57837;52.064;113.478;2023-06-04T12:35:21;93178.47;;;20.46
70415;BMP280;57837;52.064;113.478;2023-06-04T12:38:25;93175.50;;;20.29
70415;BMP280;57837;52.064;113.478;2023-06-04T12:41:30;93172.94;;;20.16
70415;BMP280;57837;52.064;113.478;2023-06-04T12:44:35;93184.59;;;19.94
70415;BMP280;57837;52.064;113.478;2023-06-04T12:47:40;93177.47;;;19.82
70415;BMP280;57837;52.064;113.478;2023-06-04T12:50:45;93178.09;;;19.75
70415;BMP280;57837;52.064;113.478;2023-06-04T12:53:49;93192.34;;;19.66
70415;BMP280;57837;52.064;113.478;2023-06-04T12:56:54;93184.88;;;19.57
70415;BMP280;57837;52.064;113.478;2023-06-04T13:00:02;93185.38;;;19.42
70415;BMP280;57837;52.064;113.478;2023-06-04T13:03:07;93187.03;;;19.32
70415;BMP280;57837;52.064;113.478;2023-06-04T13:06:11;93192.53;;;19.15
70415;BMP280;57837;52.064;113.478;2023-06-04T13:09:15;93192.53;;;19.02
70415;BMP280;57837;52.064;113.478;2023-06-04T13:12:19;93199.59;;;18.94
70415;BMP280;57837;52.064;113.478;2023-06-04T13:15:22;93196.31;;;18.88
70415;BMP280;57837;52.064;113.478;2023-06-04T13:18:27;93188.16;;;18.79
70415;BMP280;57837;52.064;113.478;2023-06-04T13:21:32;93187.31;;;18.71
70415;BMP280;57837;52.064;113.478;2023-06-04T13:24:35;93188.81;;;18.66
70415;BMP280;57837;52.064;113.478;2023-06-04T13:27:40;93182.84;;;18.52
70415;BMP280;57837;52.064;113.478;2023-06-04T13:30:44;93182.47;;;18.43
70415;BMP280;57837;52.064;113.478;2023-06-04T13:33:48;93181.94;;;18.31
70415;BMP280;57837;52.064;113.478;2023-06-04T13:36:53;93182.13;;;18.33
70415;BMP280;57837;52.064;113.478;2023-06-04T13:39:56;93177.91;;;18.30
70415;BMP280;57837;52.064;113.478;2023-06-04T13:42:59;93182.81;;;18.21
70415;BMP280;57837;52.064;113.478;2023-06-04T13:46:03;93182.81;;;18.21
70415;BMP280;57837;52.064;113.478;2023-06-04T13:49:07;93179.59;;;18.09
70415;BMP280;57837;52.064;113.478;2023-06-04T13:52:11;93180.97;;;17.97
70415;BMP280;57837;52.064;113.478;2023-06-04T13:55:15;93180.56;;;17.93
70415;BMP280;57837;52.064;113.478;2023-06-04T13:58:19;93168.38;;;17.95
70415;BMP280;57837;52.064;113.478;2023-06-04T14:01:22;93177.41;;;17.94
70415;BMP280;57837;52.064;113.478;2023-06-04T14:04:26;93179.84;;;17.92
70415;BMP280;57837;52.064;113.478;2023-06-04T14:07:30;93179.91;;;17.87
70415;BMP280;57837;52.064;113.478;2023-06-04T14:10:34;93175.44;;;17.82
70415;BMP280;57837;52.064;113.478;2023-06-04T14:13:39;93181.31;;;17.69
70415;BMP280;57837;52.064;113.478;2023-06-04T14:16:45;93174.72;;;17.62
70415;BMP280;57837;52.064;113.478;2023-06-04T14:19:49;93172.38;;;17.59
70415;BMP280;57837;52.064;113.478;2023-06-04T14:22:53;93179.84;;;17.49
70415;BMP280;57837;52.064;113.478;2023-06-04T14:25:57;93179.84;;;17.49
70415;BMP280;57837;52.064;113.478;2023-06-04T14:29:00;93184.56;;;17.51
70415;BMP280;57837;52.064;113.478;2023-06-04T14:32:05;93182.66;;;17.51
70415;BMP280;57837;52.064;113.478;2023-06-04T14:35:09;93181.94;;;17.51
70415;BMP280;57837;52.064;113.478;2023-06-04T14:38:14;93176.81;;;17.45
70415;BMP280;57837;52.064;113.478;2023-06-04T14:41:18;93175.41;;;17.44
70415;BMP280;57837;52.064;113.478;2023-06-04T14:44:22;93180.50;;;17.55
70415;BMP280;57837;52.064;113.478;2023-06-04T14:47:25;93181.38;;;17.63
70415;BMP280;57837;52.064;113.478;2023-06-04T14:50:30;93186.56;;;17.69
70415;BMP280;57837;52.064;113.478;2023-06-04T14:53:34;93180.66;;;17.82
70415;BMP280;57837;52.064;113.478;2023-06-04T14:56:38;93185.28;;;17.94
70415;BMP280;57837;52.064;113.478;2023-06-04T14:59:41;93179.97;;;18.00
70415;BMP280;57837;52.064;113.478;2023-06-04T15:02:46;93180.38;;;18.04
70415;BMP280;57837;52.064;113.478;2023-06-04T15:05:51;93182.22;;;18.09
70415;BMP280;57837;52.064;113.478;2023-06-04T15:09:00;93185.06;;;18.11
70415;BMP280;57837;52.064;113.478;2023-06-04T15:12:04;93194.59;;;18.08
70415;BMP280;57837;52.064;113.478;2023-06-04T15:15:08;93189.75;;;17.99
70415;BMP280;57837;52.064;113.478;2023-06-04T15:18:12;93188.19;;;17.91
70415;BMP280;57837;52.064;113.478;2023-06-04T15:21:17;93190.16;;;17.85
70415;BMP280;57837;52.064;113.478;2023-06-04T15:24:20;93195.59;;;17.87
70415;BMP280;57837;52.064;113.478;2023-06-04T15:27:24;93198.72;;;17.85
70415;BMP280;57837;52.064;113.478;2023-06-04T15:30:28;93200.34;;;17.69
70415;BMP280;57837;52.064;113.478;2023-06-04T15:33:32;93205.22;;;17.60
70415;BMP280;57837;52.064;113.478;2023-06-04T15:36:36;93195.16;;;17.64
70415;BMP280;57837;52.064;113.478;2023-06-04T15:39:41;93201.22;;;17.53
70415;BMP280;57837;52.064;113.478;2023-06-04T15:42:45;93199.66;;;17.45
70415;BMP280;57837;52.064;113.478;2023-06-04T15:45:50;93204.09;;;17.50
70415;BMP280;57837;52.064;113.478;2023-06-04T15:48:54;93201.22;;;17.53
70415;BMP280;57837;52.064;113.478;2023-06-04T15:51:58;93208.53;;;17.60
70415;BMP280;57837;52.064;113.478;2023-06-04T15:55:02;93212.97;;;17.65
70415;BMP280;57837;52.064;113.478;2023-06-04T15:58:05;93206.06;;;17.68
70415;BMP280;57837;52.064;113.478;2023-06-04T16:01:09;93210.22;;;17.77
70415;BMP280;57837;52.064;113.478;2023-06-04T16:04:13;93214.66;;;17.87
70415;BMP280;57837;52.064;113.478;2023-06-04T16:07:16;93206.47;;;17.96
70415;BMP280;57837;52.064;113.478;2023-06-04T16:10:20;93212.13;;;18.00
70415;BMP280;57837;52.064;113.478;2023-06-04T16:13:24;93208.09;;;17.99
70415;BMP280;57837;52.064;113.478;2023-06-04T16:16:30;93205.03;;;17.95
70415;BMP280;57837;52.064;113.478;2023-06-04T16:19:34;93210.97;;;17.96
70415;BMP280;57837;52.064;113.478;2023-06-04T16:22:37;93215.50;;;17.95
70415;BMP280;57837;52.064;113.478;2023-06-04T16:25:41;93218.91;;;17.90
70415;BMP280;57837;52.064;113.478;2023-06-04T16:28:45;93211.31;;;17.87
70415;BMP280;57837;52.064;113.478;2023-06-04T16:31:49;93211.13;;;17.85
70415;BMP280;57837;52.064;113.478;2023-06-04T16:34:53;93215.91;;;17.81
70415;BMP280;57837;52.064;113.478;2023-06-04T16:37:58;93213.34;;;17.75
70415;BMP280;57837;52.064;113.478;2023-06-04T16:41:02;93211.31;;;17.68
70415;BMP280;57837;52.064;113.478;2023-06-04T16:44:06;93207.53;;;17.63
70415;BMP280;57837;52.064;113.478;2023-06-04T16:47:10;93213.97;;;17.62
70415;BMP280;57837;52.064;113.478;2023-06-04T16:50:15;93214.03;;;17.57
70415;BMP280;57837;52.064;113.478;2023-06-04T16:53:18;93212.59;;;17.56
70415;BMP280;57837;52.064;113.478;2023-06-04T16:56:22;93214.25;;;17.59
70415;BMP280;57837;52.064;113.478;2023-06-04T16:59:27;93210.94;;;17.58
70415;BMP280;57837;52.064;113.478;2023-06-04T17:02:33;93207.59;;;17.58
70415;BMP280;57837;52.064;113.478;2023-06-04T17:05:37;93206.88;;;17.57
70415;BMP280;57837;52.064;113.478;2023-06-04T17:08:40;93209.03;;;17.59
70415;BMP280;57837;52.064;113.478;2023-06-04T17:11:44;93205.75;;;17.53
70415;BMP280;57837;52.064;113.478;2023-06-04T17:14:48;93215.69;;;17.36